Webcam & Weather

This webcam image will automatically refresh every 15 seconds.


METAR and TAF for EGLL Heathrow (12 Nautical Miles East of White Waltham)

METAR FOR EGLL (Issued: Mon, January 23rd 2017 1:50 AM UTC):
EGLL 230150Z VRB01KT 1300 R27R/P1500 BR FEW000 M04/M04 Q1028

TAF FOR EGLL (Issued: Sun, January 22nd 2017 6:20 PM UTC):
TAF EGLL 221653Z 2218/2324 VRB02KT 5000 HZ NSC BECMG 2218/2221 3200 BR PROB30 TEMPO 2300/2302 0500 FZFG BKN000 PROB40 2302/2312 0200 FZFG VV/// PROB30 TEMPO 2312/2320 0500 FG BKN001 PROB40 2320/2324 0300 FG BKN000

Play 24 hour timelapse | Play 30 day timelapse

Comments are closed.